Ana Sayfa
METAR-TAF:

METAR-TAF

Havaalanları :

Clinton / Burns Flat, Oklahoma, Amerika Birleşik Devletleri

Enlem: 35-21-24N, Boylam: 099-12-13W, yükseklik: 585 m

Güncel hava durumu gözlemi

Rapor saat 19:53 UTC de 27 dakika önce yapıldı.
Rüzgar güneydoğudan 10 kt ve 19 kt'a kadar ani rüzgarlar
Sıcaklık 33°C
Nem 49%
Basınç 1015 hPa
Görüş mesafesi: 16.1 km
Açık gökyüzü

METAR: KCSM 051953Z 14010G19KT 10SM CLR 33/21 A2997 RMK AO2 SLP123 T03280206

Saat: 15:20 (20:20 UTC)

Tahmin

Rapor saat 17:41 UTC de 2 saat ve 39 dakika önce yapıldı.
Ayın 05'si saat 18 UTC'den ayın 06'si saat 18 UTC'ye kadar geçerli Tahmin
Rüzgar güneydan 10 kt
Görüş mesafesi: 10 km
25000 ft yükseklikte az bulutlu

TAF: KCSM 051741Z 0518/0618 17010KT P6SM FEW250

4.000'den fazla havaalanı için hava durumu gözlemleri ve tahminleri (METAR ve TAF raporları).

Kullanılabilir istasyonlar harita üzerinde sarı ve kırmızı noktalarla gösterilir.

İstasyonun adını görmek için fareyi noktanın üzerinde gezdirin.

Sonrasında hava gözlem ve tahminlerini görmek için tıklayın.

Haritayı değiştirmek için: yaklaştırmak için siyah artı işaretli yeşil düğmeye ve uzaklaştırmak için de eksi işaretli düğmeye hızla tıklayın; bitişik haritalar için yeşil okları kullanın.


METAR-TAF: